createdAt,value
2023-04-15T00:02:29.687Z,14.17
2023-04-15T00:04:57.708Z,12.88
2023-04-15T00:07:25.963Z,12.50
2023-04-15T00:09:56.346Z,12.33
2023-04-15T00:14:52.278Z,18.83
2023-04-15T00:17:20.445Z,14.03
2023-04-15T00:19:49.807Z,16.47
2023-04-15T00:22:18.423Z,18.07
2023-04-15T00:24:46.595Z,13.93
2023-04-15T00:27:14.576Z,15.97
2023-04-15T00:29:42.631Z,11.27
2023-04-15T00:32:10.981Z,18.80
2023-04-15T00:34:38.884Z,10.67
2023-04-15T00:37:08.389Z,13.27
2023-04-15T00:39:36.375Z,16.95
2023-04-15T00:42:05.658Z,14.07
2023-04-15T00:44:34.759Z,13.47
2023-04-15T00:47:02.952Z,15.00
2023-04-15T00:49:32.224Z,14.33
2023-04-15T00:52:00.347Z,16.77
2023-04-15T00:54:29.924Z,17.93
2023-04-15T00:56:58.041Z,11.57
2023-04-15T00:59:26.376Z,14.87
2023-04-15T01:01:55.082Z,17.30
2023-04-15T01:04:23.215Z,15.27
2023-04-15T01:06:51.420Z,12.23
2023-04-15T01:09:19.795Z,13.53
2023-04-15T01:11:49.401Z,12.00
2023-04-15T01:14:17.466Z,16.23
2023-04-15T01:16:45.900Z,19.27
2023-04-15T01:19:16.152Z,11.87
2023-04-15T01:21:44.588Z,14.60
2023-04-15T01:24:13.005Z,17.37
2023-04-15T01:26:44.476Z,13.40
2023-04-15T01:29:13.225Z,17.57
2023-04-15T01:31:41.381Z,15.77
2023-04-15T01:34:09.426Z,14.27
2023-04-15T01:36:37.598Z,17.00
2023-04-15T01:39:06.540Z,12.27
2023-04-15T01:41:34.571Z,16.70
2023-04-15T01:44:04.072Z,14.13
2023-04-15T01:46:32.403Z,16.80
2023-04-15T01:49:00.979Z,16.07
2023-04-15T01:51:29.506Z,17.20
2023-04-15T01:53:57.837Z,15.33
2023-04-15T01:56:25.752Z,13.13
2023-04-15T01:58:54.179Z,13.07
2023-04-15T02:01:23.739Z,12.63
2023-04-15T02:03:51.809Z,14.88
2023-04-15T02:06:19.841Z,13.57
2023-04-15T02:08:47.958Z,13.90
2023-04-15T02:11:15.913Z,12.67
2023-04-15T02:13:44.061Z,16.73
2023-04-15T02:16:21.430Z,8.90
2023-04-15T02:18:52.062Z,17.40
2023-04-15T02:21:20.313Z,16.63
2023-04-15T02:23:48.539Z,17.20
2023-04-15T02:26:16.980Z,11.67
2023-04-15T02:28:45.002Z,14.50
2023-04-15T02:31:13.122Z,16.37
2023-04-15T02:33:41.205Z,13.50
2023-04-15T02:36:12.423Z,12.60
2023-04-15T02:38:43.235Z,12.03
2023-04-15T02:41:11.478Z,16.27
2023-04-15T02:43:40.061Z,13.13
2023-04-15T02:46:13.021Z,15.38
2023-04-15T02:48:41.252Z,16.00
2023-04-15T02:51:19.852Z,13.93
2023-04-15T02:53:48.513Z,16.07
2023-04-15T02:56:17.541Z,13.17
2023-04-15T02:58:46.198Z,14.27
2023-04-15T03:01:14.763Z,13.20
2023-04-15T03:03:42.977Z,15.93
2023-04-15T03:06:11.091Z,17.03
2023-04-15T03:08:40.436Z,11.27
2023-04-15T03:11:08.551Z,16.93
2023-04-15T03:13:36.535Z,11.37
2023-04-15T03:16:05.676Z,17.10
2023-04-15T03:18:33.885Z,12.30
2023-04-15T03:21:02.765Z,9.93
2023-04-15T03:23:32.720Z,12.50
2023-04-15T03:26:05.208Z,24.98
2023-04-15T03:28:33.265Z,11.00
2023-04-15T03:31:01.475Z,9.97
2023-04-15T03:33:33.657Z,14.83
2023-04-15T03:36:01.727Z,12.77
2023-04-15T03:38:30.031Z,10.30
2023-04-15T03:40:58.106Z,9.30
2023-04-15T03:43:27.497Z,12.00
2023-04-15T03:45:55.637Z,9.20
2023-04-15T03:48:23.955Z,13.40
2023-04-15T03:50:52.151Z,12.23
2023-04-15T03:53:20.456Z,14.87
2023-04-15T03:55:48.610Z,10.90
2023-04-15T03:58:16.686Z,17.97
2023-04-15T04:00:46.026Z,10.07
2023-04-15T04:03:14.354Z,11.53
2023-04-15T04:05:44.138Z,12.87
2023-04-15T04:08:13.966Z,15.10
2023-04-15T04:10:42.061Z,13.93
2023-04-15T04:13:10.148Z,10.33
2023-04-15T04:15:38.235Z,16.33
2023-04-15T04:18:07.801Z,9.93
2023-04-15T04:20:35.911Z,9.32
2023-04-15T04:23:03.895Z,10.97
2023-04-15T04:25:32.441Z,14.93
2023-04-15T04:28:00.690Z,10.50
2023-04-15T04:30:28.710Z,8.57
2023-04-15T04:32:56.889Z,12.57
2023-04-15T04:35:26.463Z,12.23
2023-04-15T04:37:54.912Z,10.32
2023-04-15T04:40:23.092Z,10.17
2023-04-15T04:42:51.112Z,9.07
2023-04-15T04:45:19.339Z,9.53
2023-04-15T04:47:49.273Z,13.83
2023-04-15T04:50:17.738Z,8.93
2023-04-15T04:52:47.250Z,11.87
2023-04-15T04:55:15.307Z,12.70
2023-04-15T04:57:43.382Z,11.07
2023-04-15T05:00:12.802Z,11.70
2023-04-15T05:02:41.940Z,10.73
2023-04-15T05:05:11.094Z,12.33
2023-04-15T05:07:39.597Z,8.80
2023-04-15T05:10:10.850Z,9.90
2023-04-15T05:12:38.967Z,8.23
2023-04-15T05:15:08.310Z,9.80
2023-04-15T05:17:36.502Z,11.77
2023-04-15T05:20:04.957Z,9.80
2023-04-15T05:22:33.187Z,9.37
2023-04-15T05:25:01.155Z,9.83
2023-04-15T05:27:30.871Z,7.97
2023-04-15T05:29:58.818Z,12.60
2023-04-15T05:32:27.026Z,9.00
2023-04-15T05:34:55.084Z,7.60
2023-04-15T05:37:23.053Z,10.27
2023-04-15T05:39:51.192Z,8.20
2023-04-15T05:42:19.185Z,9.70
2023-04-15T05:44:48.662Z,8.67
2023-04-15T05:47:16.695Z,8.30
2023-04-15T05:49:44.595Z,9.93
2023-04-15T05:52:12.721Z,9.73
2023-04-15T05:54:40.879Z,10.50
2023-04-15T05:57:08.852Z,12.27
2023-04-15T05:59:37.116Z,8.57
2023-04-15T06:02:06.661Z,7.03
2023-04-15T06:04:34.773Z,8.35
2023-04-15T06:07:02.929Z,6.77
2023-04-15T06:09:30.957Z,9.17
2023-04-15T06:11:59.959Z,6.37
2023-04-15T06:14:28.055Z,10.30
2023-04-15T06:16:56.429Z,8.47
2023-04-15T06:19:26.209Z,8.17
2023-04-15T06:21:54.369Z,9.05
2023-04-15T06:24:22.329Z,6.57
2023-04-15T06:26:50.715Z,7.57
2023-04-15T06:29:18.937Z,9.63
2023-04-15T06:31:49.272Z,9.73
2023-04-15T06:34:17.399Z,10.07
2023-04-15T06:36:47.024Z,10.67
2023-04-15T06:39:15.041Z,10.20
2023-04-15T06:41:43.174Z,11.67
2023-04-15T06:44:11.642Z,8.17
2023-04-15T06:46:39.953Z,13.03
2023-04-15T06:49:08.145Z,7.73
2023-04-15T06:51:37.143Z,10.63
2023-04-15T06:54:06.624Z,10.67
2023-04-15T06:56:34.916Z,12.43
2023-04-15T06:59:03.208Z,7.77
2023-04-15T07:01:31.520Z,8.97
2023-04-15T07:04:01.939Z,10.90
2023-04-15T07:08:57.681Z,5.70
2023-04-15T07:11:27.327Z,7.17
2023-04-15T07:13:55.377Z,5.75
2023-04-15T07:16:23.392Z,11.13
2023-04-15T07:18:51.460Z,7.13
2023-04-15T07:21:19.568Z,12.23
2023-04-15T07:23:47.770Z,7.73
2023-04-15T07:26:15.695Z,6.83
2023-04-15T07:28:46.569Z,6.57
2023-04-15T07:31:15.051Z,9.93
2023-04-15T07:33:43.062Z,9.70
2023-04-15T07:36:11.170Z,4.97
2023-04-15T07:38:39.301Z,7.10
2023-04-15T07:41:07.349Z,6.93
2023-04-15T07:43:35.503Z,5.10
2023-04-15T07:46:05.922Z,8.17
2023-04-15T07:51:03.925Z,7.27
2023-04-15T07:53:37.784Z,6.63
2023-04-15T07:56:08.012Z,8.43
2023-04-15T07:58:36.085Z,9.32
2023-04-15T08:01:09.763Z,9.80
2023-04-15T08:03:37.917Z,8.97
2023-04-15T08:06:06.663Z,12.77
2023-04-15T08:08:34.738Z,8.07
2023-04-15T08:11:02.746Z,7.37
2023-04-15T08:13:30.828Z,7.97
2023-04-15T08:16:18.864Z,5.77
2023-04-15T08:18:47.348Z,4.70
2023-04-15T08:21:15.665Z,7.53
2023-04-15T08:23:44.430Z,10.40
2023-04-15T08:26:12.949Z,5.40
2023-04-15T08:28:42.599Z,7.93
2023-04-15T08:31:11.124Z,5.05
2023-04-15T08:33:40.736Z,6.97
2023-04-15T08:36:09.409Z,10.38
2023-04-15T08:38:37.790Z,7.37
2023-04-15T08:41:13.138Z,5.73
2023-04-15T08:43:48.332Z,6.07
2023-04-15T08:46:17.878Z,11.87
2023-04-15T08:48:48.932Z,9.93
2023-04-15T08:51:17.932Z,6.70
2023-04-15T08:53:47.514Z,8.37
2023-04-15T08:56:16.907Z,5.28
2023-04-15T08:58:46.127Z,4.03
2023-04-15T09:01:14.416Z,9.33
2023-04-15T09:03:43.245Z,6.57
2023-04-15T09:06:13.003Z,6.97
2023-04-15T09:08:41.440Z,5.88
2023-04-15T09:11:09.483Z,6.43
2023-04-15T09:13:37.534Z,4.73
2023-04-15T09:16:11.003Z,7.13
2023-04-15T09:18:40.541Z,6.33
2023-04-15T09:21:11.262Z,9.50
2023-04-15T09:23:43.042Z,6.67
2023-04-15T09:26:10.886Z,8.77
2023-04-15T09:28:43.478Z,7.83
2023-04-15T09:31:12.132Z,6.13
2023-04-15T09:33:56.877Z,3.97
2023-04-15T09:36:25.282Z,6.30
2023-04-15T09:38:58.352Z,5.17
2023-04-15T09:41:35.638Z,5.33
2023-04-15T09:44:03.914Z,3.70
2023-04-15T09:46:44.572Z,5.40
2023-04-15T09:49:13.591Z,4.43
2023-04-15T09:51:43.397Z,9.00
2023-04-15T09:54:22.805Z,6.57
2023-04-15T09:56:50.776Z,4.80
2023-04-15T09:59:20.101Z,5.67
2023-04-15T10:01:49.154Z,5.43
2023-04-15T10:04:17.745Z,5.20
2023-04-15T10:06:46.577Z,6.63
2023-04-15T10:09:14.744Z,12.03
2023-04-15T10:11:45.007Z,4.60
2023-04-15T10:14:17.698Z,4.60
2023-04-15T10:16:49.666Z,6.00
2023-04-15T10:19:25.096Z,4.87
2023-04-15T10:21:53.812Z,6.23
2023-04-15T10:24:23.677Z,5.13
2023-04-15T10:26:53.714Z,6.93
2023-04-15T10:29:21.778Z,6.38
2023-04-15T10:31:50.256Z,6.17
2023-04-15T10:34:19.791Z,7.90
2023-04-15T10:36:47.798Z,8.20
2023-04-15T10:39:42.272Z,11.77
2023-04-15T10:42:12.933Z,7.23
2023-04-15T10:44:43.846Z,7.13
2023-04-15T10:47:13.710Z,10.53
2023-04-15T10:49:47.438Z,7.53
2023-04-15T10:52:17.243Z,6.57
2023-04-15T10:54:45.916Z,6.45
2023-04-15T10:57:23.764Z,5.17
2023-04-15T11:00:04.755Z,8.50
2023-04-15T11:02:44.608Z,6.07
2023-04-15T11:05:13.991Z,4.97
2023-04-15T11:07:49.640Z,4.73
2023-04-15T11:10:53.991Z,5.20
2023-04-15T11:13:27.352Z,6.77
2023-04-15T11:16:02.005Z,7.43
2023-04-15T11:18:32.962Z,5.63
2023-04-15T11:21:03.607Z,7.30
2023-04-15T11:23:37.689Z,4.20
2023-04-15T11:26:09.463Z,7.13
2023-04-15T11:28:40.837Z,6.17
2023-04-15T11:31:11.945Z,7.97
2023-04-15T11:33:46.285Z,4.27
2023-04-15T11:36:14.961Z,8.03
2023-04-15T11:38:48.455Z,5.33
2023-04-15T11:41:16.714Z,7.67
2023-04-15T11:43:46.104Z,4.83
2023-04-15T11:46:14.208Z,9.03
2023-04-15T11:48:44.442Z,7.93
2023-04-15T11:51:13.489Z,5.60
2023-04-15T11:53:43.936Z,6.73
2023-04-15T11:58:40.707Z,8.03
2023-04-15T12:01:10.317Z,7.10
2023-04-15T12:03:40.771Z,10.00
2023-04-15T12:06:20.505Z,8.13
2023-04-15T12:09:06.820Z,8.80
2023-04-15T12:11:37.752Z,7.97
2023-04-15T12:14:08.280Z,8.70
2023-04-15T12:16:48.188Z,11.33
2023-04-15T12:19:25.231Z,9.43
2023-04-15T12:21:56.662Z,10.27
2023-04-15T12:24:25.889Z,5.70
2023-04-15T12:26:55.996Z,9.33
2023-04-15T12:29:27.731Z,8.23
2023-04-15T12:31:59.554Z,5.83
2023-04-15T12:34:29.642Z,10.33
2023-04-15T12:36:58.989Z,7.00
2023-04-15T12:39:30.494Z,10.73
2023-04-15T12:41:59.460Z,6.93
2023-04-15T12:44:30.338Z,7.73
2023-04-15T12:47:00.987Z,6.67
2023-04-15T12:49:29.576Z,5.87
2023-04-15T12:51:59.568Z,6.00
2023-04-15T12:54:28.689Z,7.95
2023-04-15T12:56:56.888Z,6.17
2023-04-15T12:59:25.125Z,6.70
2023-04-15T13:01:54.722Z,6.60
2023-04-15T13:04:24.656Z,7.70
2023-04-15T13:06:52.749Z,8.57
2023-04-15T13:09:20.946Z,8.77
2023-04-15T13:11:48.909Z,5.30
2023-04-15T13:14:16.992Z,11.53
2023-04-15T13:16:45.153Z,8.13
2023-04-15T13:19:13.115Z,4.93
2023-04-15T13:21:42.606Z,7.23
2023-04-15T13:24:10.806Z,4.07
2023-04-15T13:26:40.769Z,7.17
2023-04-15T13:29:08.751Z,6.18
2023-04-15T13:31:36.993Z,9.27
2023-04-15T13:34:05.166Z,5.00
2023-04-15T13:36:33.363Z,5.53
2023-04-15T13:39:03.533Z,10.37
2023-04-15T13:41:32.247Z,7.32
2023-04-15T13:44:00.234Z,6.77
2023-04-15T13:46:28.428Z,5.43
2023-04-15T13:48:56.334Z,6.70
2023-04-15T13:51:24.291Z,8.77
2023-04-15T13:53:52.544Z,4.73
2023-04-15T13:56:21.924Z,6.33
2023-04-15T13:58:51.503Z,6.07
2023-04-15T14:01:19.697Z,4.63
2023-04-15T14:03:47.707Z,3.70
2023-04-15T14:06:15.823Z,6.80
2023-04-15T14:08:43.968Z,4.43
2023-04-15T14:11:11.990Z,5.33
2023-04-15T14:13:41.269Z,8.77
2023-04-15T14:16:09.413Z,5.80
2023-04-15T14:18:38.361Z,5.80
2023-04-15T14:21:07.505Z,4.70
2023-04-15T14:23:35.558Z,6.83
2023-04-15T14:26:03.612Z,6.40
2023-04-15T14:28:32.171Z,8.43
2023-04-15T14:31:01.834Z,7.73
2023-04-15T14:33:30.059Z,6.20
2023-04-15T14:35:58.040Z,8.33
2023-04-15T14:38:26.308Z,5.87
2023-04-15T14:40:54.266Z,6.80
2023-04-15T14:43:22.305Z,11.00
2023-04-15T14:45:51.656Z,5.03
2023-04-15T14:48:21.120Z,6.20
2023-04-15T14:50:49.181Z,7.90
2023-04-15T14:53:17.295Z,7.80
2023-04-15T14:55:45.738Z,7.03
2023-04-15T14:58:13.761Z,4.50
2023-04-15T15:00:42.182Z,6.00
2023-04-15T15:03:13.764Z,4.67
2023-04-15T15:05:44.458Z,6.90
2023-04-15T15:08:12.741Z,8.03
2023-04-15T15:10:49.465Z,7.30
2023-04-15T15:13:18.656Z,6.53
2023-04-15T15:15:46.873Z,5.63
2023-04-15T15:18:14.987Z,4.30
2023-04-15T15:20:44.429Z,5.83
2023-04-15T15:23:12.409Z,5.00
2023-04-15T15:25:40.408Z,5.90
2023-04-15T15:28:08.750Z,5.00
2023-04-15T15:30:36.753Z,6.03
2023-04-15T15:33:04.940Z,7.20
2023-04-15T15:35:33.507Z,7.00
2023-04-15T15:38:02.842Z,4.90
2023-04-15T15:40:31.018Z,6.53
2023-04-15T15:42:59.183Z,3.60
2023-04-15T15:45:27.304Z,8.00
2023-04-15T15:47:57.104Z,4.93
2023-04-15T15:50:25.304Z,5.82
2023-04-15T15:52:53.177Z,5.57
2023-04-15T15:55:23.451Z,5.13
2023-04-15T15:57:54.373Z,4.32
2023-04-15T16:00:23.279Z,7.67
2023-04-15T16:05:25.733Z,4.67
2023-04-15T16:07:56.631Z,3.77
2023-04-15T16:10:27.438Z,7.90
2023-04-15T16:12:55.799Z,4.20
2023-04-15T16:15:24.451Z,5.00
2023-04-15T16:17:52.769Z,5.13
2023-04-15T16:20:21.066Z,5.70
2023-04-15T16:22:49.332Z,3.83
2023-04-15T16:25:18.574Z,6.23
2023-04-15T16:28:00.738Z,8.23
2023-04-15T16:30:31.546Z,4.73
2023-04-15T16:32:59.817Z,6.93
2023-04-15T16:35:28.422Z,7.80
2023-04-15T16:37:56.607Z,3.87
2023-04-15T16:40:25.010Z,6.00
2023-04-15T16:42:54.579Z,4.47
2023-04-15T16:45:22.698Z,5.63
2023-04-15T16:47:50.886Z,5.80
2023-04-15T16:50:18.983Z,3.83
2023-04-15T16:52:47.051Z,4.33
2023-04-15T16:55:15.002Z,5.93
2023-04-15T16:58:01.596Z,5.80
2023-04-15T17:00:33.077Z,6.67
2023-04-15T17:03:01.852Z,5.72
2023-04-15T17:05:30.662Z,5.77
2023-04-15T17:07:59.225Z,5.10
2023-04-15T17:10:27.407Z,5.13
2023-04-15T17:12:57.552Z,5.40
2023-04-15T17:15:26.114Z,5.75
2023-04-15T17:17:55.930Z,15.00
2023-04-15T17:20:24.116Z,13.73
2023-04-15T17:22:55.961Z,6.80
2023-04-15T17:25:24.816Z,7.07
2023-04-15T17:27:53.022Z,5.10
2023-04-15T17:30:21.329Z,5.47
2023-04-15T17:32:49.585Z,5.67
2023-04-15T17:35:19.754Z,6.50
2023-04-15T17:37:48.061Z,6.60
2023-04-15T17:40:16.118Z,7.60
2023-04-15T17:42:44.286Z,6.27
2023-04-15T17:45:12.820Z,7.93
2023-04-15T17:47:41.078Z,6.10
2023-04-15T17:50:10.010Z,5.70
2023-04-15T17:52:39.381Z,5.30
2023-04-15T17:55:08.137Z,6.67
2023-04-15T17:57:36.411Z,4.20
2023-04-15T18:00:04.550Z,6.90
2023-04-15T18:02:33.902Z,6.77
2023-04-15T18:05:04.697Z,3.70
2023-04-15T18:07:32.589Z,5.60
2023-04-15T18:10:01.986Z,5.20
2023-04-15T18:12:30.223Z,4.07
2023-04-15T18:14:58.182Z,4.77
2023-04-15T18:17:26.266Z,6.73
2023-04-15T18:19:54.479Z,11.90
2023-04-15T18:22:22.473Z,9.33
2023-04-15T18:24:50.957Z,8.40
2023-04-15T18:27:20.653Z,4.53
2023-04-15T18:29:48.556Z,5.38
2023-04-15T18:32:16.514Z,7.27
2023-04-15T18:34:44.647Z,4.17
2023-04-15T18:37:12.673Z,7.20
2023-04-15T18:39:43.285Z,13.77
2023-04-15T18:42:11.516Z,6.80
2023-04-15T18:44:40.922Z,5.53
2023-04-15T18:47:08.894Z,8.13
2023-04-15T18:49:37.516Z,6.90
2023-04-15T18:52:05.504Z,8.23
2023-04-15T18:54:33.531Z,7.87
2023-04-15T18:57:01.630Z,8.87
2023-04-15T18:59:30.710Z,4.77
2023-04-15T19:02:01.569Z,7.73
2023-04-15T19:04:32.142Z,6.27
2023-04-15T19:07:00.261Z,7.07
2023-04-15T19:09:29.500Z,8.40
2023-04-15T19:11:58.008Z,8.20
2023-04-15T19:14:25.967Z,7.33
2023-04-15T19:16:54.022Z,6.23
2023-04-15T19:19:23.554Z,5.93
2023-04-15T19:21:51.706Z,6.13
2023-04-15T19:24:20.503Z,5.57
2023-04-15T19:26:50.797Z,7.70
2023-04-15T19:29:18.846Z,7.70
2023-04-15T19:31:46.870Z,9.23
2023-04-15T19:34:14.972Z,6.57
2023-04-15T19:36:44.372Z,7.87
2023-04-15T19:39:12.522Z,13.73
2023-04-15T19:41:40.736Z,6.03
2023-04-15T19:44:08.738Z,7.83
2023-04-15T19:46:36.876Z,4.83
2023-04-15T19:49:05.405Z,6.20
2023-04-15T19:51:33.552Z,5.57
2023-04-15T19:54:03.139Z,7.27
2023-04-15T19:56:33.673Z,11.63
2023-04-15T19:59:02.694Z,7.20
2023-04-15T20:01:30.900Z,8.03
2023-04-15T20:03:59.821Z,6.70
2023-04-15T20:06:28.561Z,7.27
2023-04-15T20:08:56.576Z,8.17
2023-04-15T20:12:46.793Z,4.97
2023-04-15T20:14:17.713Z,5.57
2023-04-15T20:16:45.909Z,8.13
2023-04-15T20:19:13.943Z,5.97
2023-04-15T20:21:41.843Z,7.27
2023-04-15T20:24:10.139Z,7.40
2023-04-15T20:26:39.424Z,8.67
2023-04-15T20:29:07.562Z,6.23
2023-04-15T20:31:36.351Z,6.43
2023-04-15T20:34:04.253Z,6.47
2023-04-15T20:36:33.317Z,12.00
2023-04-15T20:39:01.430Z,7.83
2023-04-15T20:41:29.463Z,8.67
2023-04-15T20:43:58.755Z,10.77
2023-04-15T20:46:27.765Z,5.93
2023-04-15T20:48:56.319Z,6.60
2023-04-15T20:51:24.233Z,6.93
2023-04-15T20:53:52.626Z,4.87
2023-04-15T20:56:20.841Z,4.47
2023-04-15T20:58:48.808Z,6.43
2023-04-15T21:01:18.391Z,8.53
2023-04-15T21:03:46.788Z,8.65
2023-04-15T21:06:14.856Z,11.40
2023-04-15T21:08:42.900Z,8.43
2023-04-15T21:11:11.341Z,8.27
2023-04-15T21:13:39.490Z,9.77
2023-04-15T21:16:09.133Z,5.67
2023-04-15T21:18:38.744Z,8.00
2023-04-15T21:21:09.449Z,8.93
2023-04-15T21:23:37.498Z,5.77
2023-04-15T21:26:06.610Z,7.87
2023-04-15T21:28:34.561Z,6.87
2023-04-15T21:31:02.868Z,6.17
2023-04-15T21:33:30.944Z,7.00
2023-04-15T21:36:00.421Z,6.97
2023-04-15T21:38:28.755Z,7.22
2023-04-15T21:40:56.912Z,6.43
2023-04-15T21:43:25.730Z,8.53
2023-04-15T21:46:22.344Z,5.67
2023-04-15T21:48:42.846Z,6.93
2023-04-15T21:51:12.613Z,7.97
2023-04-15T21:53:40.819Z,5.75
2023-04-15T21:56:09.555Z,8.00
2023-04-15T21:58:38.040Z,5.37
2023-04-15T22:01:06.440Z,8.13
2023-04-15T22:03:34.957Z,6.93
2023-04-15T22:06:03.969Z,6.40
2023-04-15T22:08:44.599Z,6.73
2023-04-15T22:11:23.173Z,8.13
2023-04-15T22:13:51.066Z,7.33
2023-04-15T22:16:19.261Z,11.53
2023-04-15T22:18:47.425Z,11.20
2023-04-15T22:21:18.511Z,8.23
2023-04-15T22:23:49.155Z,8.97
2023-04-15T22:26:19.077Z,15.03
2023-04-15T22:28:47.173Z,19.77
2023-04-15T22:31:15.428Z,35.53
2023-04-15T22:33:43.570Z,22.90
2023-04-15T22:36:11.717Z,26.67
2023-04-15T22:38:40.920Z,21.00
2023-04-15T22:41:10.573Z,22.23
2023-04-15T22:43:38.504Z,11.25
2023-04-15T22:46:06.723Z,12.27
2023-04-15T22:48:35.454Z,10.23
2023-04-15T22:51:04.905Z,10.30
2023-04-15T22:53:33.087Z,8.27
2023-04-15T22:56:01.032Z,13.00
2023-04-15T22:58:32.139Z,10.37
2023-04-15T23:01:00.332Z,10.07
2023-04-15T23:03:28.663Z,10.07
2023-04-15T23:05:56.776Z,14.33
2023-04-15T23:08:25.051Z,12.57
2023-04-15T23:10:53.104Z,10.43
2023-04-15T23:13:21.270Z,8.40
2023-04-15T23:15:50.770Z,10.17
2023-04-15T23:18:18.738Z,8.33
2023-04-15T23:20:47.479Z,7.93
2023-04-15T23:23:18.033Z,8.13
2023-04-15T23:28:13.692Z,7.03
2023-04-15T23:30:42.057Z,10.07
2023-04-15T23:33:12.060Z,6.23
2023-04-15T23:35:39.997Z,6.68
2023-04-15T23:38:11.009Z,6.87
2023-04-15T23:40:38.887Z,9.17
2023-04-15T23:43:06.888Z,9.20
2023-04-15T23:45:35.077Z,10.30
2023-04-15T23:48:03.366Z,20.53
2023-04-15T23:50:33.147Z,14.53
2023-04-15T23:53:02.069Z,11.05
2023-04-15T23:55:30.700Z,8.93
2023-04-15T23:57:58.718Z,12.73
